KSLE/SLE METAR and TAF weather

Enter ICAO airport designator
Station Type Date Time Source
KSLE METAR 2021/07/29 02:56 UTC NOAA

KSLE 290256Z 29006KT 10SM CLR 31/12 A2998 RMK AO2 SLP149 T03110117 55004


Station Type Date Time Source
KSLE Decoded METAR 2021/07/29 02:56 UTC NOAA

SALEM MCNARY FIELD, OR, United States (KSLE) 44-54N 123-00W 59M
Jul 28, 2021 - 10:56 PM EDT / 2021.07.29 0256 UTC
Wind: from the WNW (290 degrees) at 7 MPH (6 KT):0
Visibility: 10 mile(s):0
Sky conditions: clear
Temperature: 88.0 F (31.1 C)
Dew Point: 53.1 F (11.7 C)
Relative Humidity: 30%
Pressure (altimeter): 29.98 in. Hg (1015 hPa)
Pressure tendency: 0.01 inches (0.4 hPa) lower than three hours ago
ob: KSLE 290256Z 29006KT 10SM CLR 31/12 A2998 RMK AO2 SLP149 T03110117 55004
cycle: 3

Station Type Date Time Source
KSLE TAF 2021/07/28 18:30 UTC NOAA

TAF KSLE 281728Z 2818/2918 36007KT P6SM SCT150

Example: see airport list